createdAt,value
2022-09-27T00:01:10.997Z,17.92
2022-09-27T00:03:39.589Z,18.27
2022-09-27T00:06:26.789Z,18.48
2022-09-27T00:08:55.689Z,17.52
2022-09-27T00:11:28.872Z,17.73
2022-09-27T00:13:59.041Z,18.38
2022-09-27T00:16:31.104Z,20.38
2022-09-27T00:19:01.252Z,18.25
2022-09-27T00:21:30.740Z,19.65
2022-09-27T00:23:59.416Z,21.60
2022-09-27T00:26:27.763Z,18.13
2022-09-27T00:28:56.034Z,18.08
2022-09-27T00:34:02.664Z,19.90
2022-09-27T00:36:32.587Z,18.48
2022-09-27T00:39:01.359Z,17.48
2022-09-27T00:41:35.954Z,19.60
2022-09-27T00:44:29.341Z,16.80
2022-09-27T00:47:09.897Z,19.45
2022-09-27T00:49:50.452Z,14.98
2022-09-27T00:52:31.777Z,16.00
2022-09-27T00:55:09.164Z,16.33
2022-09-27T00:57:37.911Z,18.05
2022-09-27T01:00:11.932Z,17.08
2022-09-27T01:02:45.661Z,17.70
2022-09-27T01:05:17.700Z,17.33
2022-09-27T01:07:45.261Z,19.35
2022-09-27T01:10:13.995Z,17.67
2022-09-27T01:13:12.523Z,16.85
2022-09-27T01:16:01.037Z,16.10
2022-09-27T01:21:01.701Z,15.33
2022-09-27T01:23:57.900Z,16.50
2022-09-27T01:26:50.345Z,18.50
2022-09-27T01:29:37.042Z,16.13
2022-09-27T01:32:10.526Z,15.55
2022-09-27T01:35:04.523Z,17.38
2022-09-27T01:37:55.459Z,16.10
2022-09-27T01:40:52.468Z,16.42
2022-09-27T01:44:03.638Z,16.38
2022-09-27T01:46:46.055Z,16.73
2022-09-27T01:49:31.927Z,15.95
2022-09-27T01:52:04.109Z,16.30
2022-09-27T01:54:44.968Z,18.70
2022-09-27T01:57:40.893Z,18.92
2022-09-27T02:00:14.966Z,17.58
2022-09-27T02:02:57.094Z,17.23
2022-09-27T02:05:33.419Z,15.73
2022-09-27T02:08:39.327Z,15.13
2022-09-27T02:11:16.103Z,15.18
2022-09-27T02:14:19.676Z,14.85
2022-09-27T02:16:59.726Z,15.20
2022-09-27T02:19:46.284Z,15.95
2022-09-27T02:22:26.456Z,15.18
2022-09-27T02:25:05.014Z,14.98
2022-09-27T02:28:10.477Z,15.52
2022-09-27T02:30:43.217Z,15.55
2022-09-27T02:33:31.191Z,15.77
2022-09-27T02:35:59.044Z,15.98
2022-09-27T02:38:29.016Z,15.77
2022-09-27T02:40:58.195Z,14.98
2022-09-27T02:43:30.959Z,14.75
2022-09-27T02:46:52.631Z,14.30
2022-09-27T02:49:58.515Z,14.15
2022-09-27T02:53:01.372Z,15.07
2022-09-27T02:55:56.765Z,15.82
2022-09-27T02:59:19.086Z,16.05
2022-09-27T03:02:24.198Z,16.38
2022-09-27T03:05:23.990Z,17.20
2022-09-27T03:07:51.569Z,18.33
2022-09-27T03:10:27.364Z,16.10
2022-09-27T03:12:58.554Z,16.60
2022-09-27T03:15:26.045Z,16.63
2022-09-27T03:18:03.401Z,15.93
2022-09-27T03:20:42.854Z,16.83
2022-09-27T03:23:28.815Z,18.15
2022-09-27T03:25:56.576Z,15.25
2022-09-27T03:28:25.741Z,15.95
2022-09-27T03:30:53.713Z,15.63
2022-09-27T03:33:50.507Z,16.77
2022-09-27T03:38:46.308Z,19.42
2022-09-27T03:41:17.510Z,21.70
2022-09-27T03:43:46.164Z,16.15
2022-09-27T03:46:14.708Z,16.33
2022-09-27T03:48:42.675Z,16.55
2022-09-27T03:51:12.349Z,15.20
2022-09-27T03:53:40.148Z,14.82
2022-09-27T03:56:07.716Z,15.77
2022-09-27T03:58:35.301Z,14.65
2022-09-27T04:01:03.192Z,15.35
2022-09-27T04:03:32.645Z,14.77
2022-09-27T04:06:15.117Z,14.88
2022-09-27T04:08:46.124Z,14.77
2022-09-27T04:11:15.273Z,15.13
2022-09-27T04:13:49.258Z,13.73
2022-09-27T04:16:18.858Z,13.27
2022-09-27T04:19:08.625Z,13.20
2022-09-27T04:21:39.250Z,16.15
2022-09-27T04:24:09.010Z,13.18
2022-09-27T04:26:37.170Z,12.52
2022-09-27T04:29:12.203Z,12.65
2022-09-27T04:31:44.490Z,11.32
2022-09-27T04:34:50.652Z,11.20
2022-09-27T04:37:23.395Z,10.10
2022-09-27T04:39:54.987Z,9.65
2022-09-27T04:42:22.523Z,9.88
2022-09-27T04:44:50.126Z,10.05
2022-09-27T04:47:18.475Z,9.32
2022-09-27T04:49:45.959Z,9.32
2022-09-27T04:52:15.483Z,9.18
2022-09-27T04:54:43.060Z,8.05
2022-09-27T04:57:12.857Z,8.45
2022-09-27T04:59:42.612Z,8.77
2022-09-27T05:02:10.385Z,10.00
2022-09-27T05:04:58.882Z,8.30
2022-09-27T05:07:33.439Z,8.77
2022-09-27T05:10:06.709Z,9.23
2022-09-27T05:12:34.530Z,7.32
2022-09-27T05:15:04.868Z,7.60
2022-09-27T05:18:09.834Z,6.90
2022-09-27T05:20:56.863Z,9.60
2022-09-27T05:23:30.831Z,10.80
2022-09-27T05:25:58.349Z,11.57
2022-09-27T05:28:25.876Z,11.43
2022-09-27T05:30:53.426Z,11.00
2022-09-27T05:33:22.552Z,10.05
2022-09-27T05:35:57.751Z,9.45
2022-09-27T05:38:30.173Z,6.88
2022-09-27T05:41:00.620Z,6.78
2022-09-27T05:43:28.934Z,6.95
2022-09-27T05:46:00.909Z,8.85
2022-09-27T05:48:30.394Z,8.50
2022-09-27T05:51:08.010Z,10.00
2022-09-27T05:53:38.703Z,32.80
2022-09-27T05:56:10.888Z,55.13
2022-09-27T05:58:57.687Z,34.70
2022-09-27T06:01:28.353Z,7.03
2022-09-27T06:04:28.070Z,7.10
2022-09-27T06:07:32.302Z,5.88
2022-09-27T06:10:01.456Z,6.18
2022-09-27T06:12:29.103Z,6.55
2022-09-27T06:14:56.570Z,6.18
2022-09-27T06:17:37.227Z,5.90
2022-09-27T06:20:11.599Z,5.45
2022-09-27T06:22:39.607Z,6.03
2022-09-27T06:25:08.118Z,6.03
2022-09-27T06:27:42.779Z,11.45
2022-09-27T06:30:20.398Z,17.98
2022-09-27T06:33:02.472Z,20.63
2022-09-27T06:35:36.141Z,16.48
2022-09-27T06:38:10.251Z,14.98
2022-09-27T06:40:46.729Z,10.00
2022-09-27T06:43:29.380Z,4.88
2022-09-27T06:46:19.538Z,4.30
2022-09-27T06:51:36.398Z,16.52
2022-09-27T06:54:04.043Z,18.27
2022-09-27T06:56:32.543Z,26.70
2022-09-27T06:59:19.688Z,15.07
2022-09-27T07:01:47.264Z,16.02
2022-09-27T07:04:33.320Z,23.95
2022-09-27T07:07:14.705Z,16.98
2022-09-27T07:09:46.209Z,20.48
2022-09-27T07:12:14.182Z,17.38
2022-09-27T07:14:43.127Z,20.25
2022-09-27T07:17:16.648Z,8.18
2022-09-27T07:19:46.308Z,9.63
2022-09-27T07:22:14.463Z,17.23
2022-09-27T07:24:44.903Z,16.48
2022-09-27T07:27:13.165Z,18.33
2022-09-27T07:29:42.133Z,17.33
2022-09-27T07:32:09.697Z,21.35
2022-09-27T07:34:39.032Z,20.58
2022-09-27T07:37:07.364Z,17.48
2022-09-27T07:39:39.248Z,13.15
2022-09-27T07:44:37.675Z,11.23
2022-09-27T07:47:27.414Z,9.48
2022-09-27T07:50:21.641Z,9.02
2022-09-27T07:53:05.500Z,7.72
2022-09-27T07:55:37.666Z,6.20
2022-09-27T07:58:13.962Z,7.82
2022-09-27T08:00:42.473Z,9.13
2022-09-27T08:03:16.149Z,6.65
2022-09-27T08:05:47.435Z,5.88
2022-09-27T08:08:17.285Z,7.00
2022-09-27T08:10:46.725Z,8.07
2022-09-27T08:13:20.457Z,8.27
2022-09-27T08:15:52.485Z,5.50
2022-09-27T08:18:22.095Z,6.22
2022-09-27T08:20:59.976Z,8.50
2022-09-27T08:23:37.095Z,9.30
2022-09-27T08:26:18.463Z,10.77
2022-09-27T08:29:08.782Z,8.18
2022-09-27T08:31:41.139Z,10.82
2022-09-27T08:34:08.796Z,14.40
2022-09-27T08:36:37.594Z,8.73
2022-09-27T08:39:05.520Z,9.23
2022-09-27T08:42:18.695Z,10.65
2022-09-27T08:45:03.274Z,6.20
2022-09-27T08:47:52.846Z,13.13
2022-09-27T08:50:39.773Z,9.57
2022-09-27T08:53:49.280Z,8.25
2022-09-27T08:56:21.305Z,4.03
2022-09-27T08:59:15.470Z,5.65
2022-09-27T09:01:43.584Z,8.32
2022-09-27T09:04:29.692Z,8.52
2022-09-27T09:07:06.318Z,6.88
2022-09-27T09:10:42.996Z,5.77
2022-09-27T09:13:31.632Z,5.97
2022-09-27T09:16:47.407Z,4.03
2022-09-27T09:20:17.837Z,6.53
2022-09-27T09:23:50.411Z,4.32
2022-09-27T09:26:57.665Z,9.02
2022-09-27T09:30:12.094Z,5.10
2022-09-27T09:36:13.992Z,5.18
2022-09-27T09:39:23.218Z,2.13
2022-09-27T09:42:14.492Z,2.35
2022-09-27T09:44:54.220Z,2.83
2022-09-27T09:47:39.627Z,3.25
2022-09-27T09:50:22.585Z,2.65
2022-09-27T09:53:04.333Z,3.47
2022-09-27T09:55:36.611Z,3.85
2022-09-27T09:59:04.079Z,4.45
2022-09-27T10:01:48.106Z,4.90
2022-09-27T10:04:28.381Z,5.82
2022-09-27T10:07:01.330Z,5.25
2022-09-27T10:09:33.858Z,17.02
2022-09-27T10:12:20.042Z,6.00
2022-09-27T10:14:50.665Z,9.23
2022-09-27T10:17:25.270Z,10.55
2022-09-27T10:19:54.356Z,10.05
2022-09-27T10:22:40.073Z,7.93
2022-09-27T10:25:19.735Z,5.15
2022-09-27T10:27:55.928Z,6.63
2022-09-27T10:30:34.079Z,5.13
2022-09-27T10:33:19.948Z,5.63
2022-09-27T10:35:54.377Z,4.43
2022-09-27T10:38:37.298Z,6.05
2022-09-27T10:41:35.545Z,5.32
2022-09-27T10:44:32.503Z,3.25
2022-09-27T10:47:25.448Z,4.23
2022-09-27T10:50:08.030Z,3.42
2022-09-27T10:53:19.170Z,2.63
2022-09-27T10:55:55.448Z,1.95
2022-09-27T10:58:35.687Z,3.28
2022-09-27T11:01:09.769Z,2.05
2022-09-27T11:04:00.281Z,2.65
2022-09-27T11:06:37.928Z,2.10
2022-09-27T11:09:26.510Z,3.10
2022-09-27T11:12:15.489Z,2.13
2022-09-27T11:14:55.715Z,2.25
2022-09-27T11:17:42.111Z,1.80
2022-09-27T11:20:16.203Z,2.03
2022-09-27T11:23:08.802Z,2.00
2022-09-27T11:26:14.704Z,3.85
2022-09-27T11:28:58.295Z,3.22
2022-09-27T11:32:48.785Z,7.10
2022-09-27T11:35:42.203Z,4.10
2022-09-27T11:38:54.203Z,4.28
2022-09-27T11:41:44.365Z,6.63
2022-09-27T11:44:33.436Z,6.88
2022-09-27T11:47:37.856Z,7.78
2022-09-27T11:50:34.833Z,7.97
2022-09-27T11:53:19.426Z,7.25
2022-09-27T11:56:21.775Z,5.45
2022-09-27T11:59:19.211Z,5.88
2022-09-27T12:02:01.585Z,12.48
2022-09-27T12:04:45.161Z,5.88
2022-09-27T12:08:09.975Z,5.10
2022-09-27T12:10:43.116Z,6.65
2022-09-27T12:13:18.605Z,6.13
2022-09-27T12:15:48.698Z,4.85
2022-09-27T12:18:35.908Z,5.00
2022-09-27T12:21:10.230Z,6.70
2022-09-27T12:23:47.402Z,7.40
2022-09-27T12:26:39.907Z,7.75
2022-09-27T12:29:30.473Z,12.95
2022-09-27T12:32:13.734Z,9.15
2022-09-27T12:35:10.582Z,12.10
2022-09-27T12:37:47.332Z,8.43
2022-09-27T12:40:33.043Z,5.47
2022-09-27T12:43:13.596Z,5.88
2022-09-27T12:46:31.917Z,4.65
2022-09-27T12:49:37.501Z,4.43
2022-09-27T12:52:23.405Z,4.35
2022-09-27T12:55:18.208Z,2.95
2022-09-27T12:58:20.635Z,2.90
2022-09-27T13:00:51.773Z,4.85
2022-09-27T13:03:40.954Z,2.15
2022-09-27T13:06:39.091Z,2.00
2022-09-27T13:09:46.803Z,3.30
2022-09-27T13:12:27.392Z,1.75
2022-09-27T13:15:14.864Z,1.10
2022-09-27T13:17:43.449Z,1.52
2022-09-27T13:20:36.726Z,1.20
2022-09-27T13:23:20.897Z,0.85
2022-09-27T13:26:00.910Z,2.58
2022-09-27T13:29:02.086Z,1.80
2022-09-27T13:31:55.333Z,0.90
2022-09-27T13:34:50.568Z,1.80
2022-09-27T13:37:45.573Z,2.05
2022-09-27T13:40:38.652Z,1.05
2022-09-27T13:43:11.448Z,1.67
2022-09-27T13:45:58.406Z,1.65
2022-09-27T13:48:56.219Z,1.10
2022-09-27T13:51:43.351Z,1.25
2022-09-27T13:54:55.981Z,1.42
2022-09-27T13:57:52.763Z,1.45
2022-09-27T14:00:29.800Z,1.50
2022-09-27T14:03:12.747Z,1.20
2022-09-27T14:05:58.060Z,1.35
2022-09-27T14:08:40.339Z,1.20
2022-09-27T14:11:23.050Z,1.15
2022-09-27T14:13:53.606Z,1.10
2022-09-27T14:16:25.541Z,1.25
2022-09-27T14:19:00.250Z,1.58
2022-09-27T14:21:40.088Z,3.08
2022-09-27T14:24:35.495Z,2.10
2022-09-27T14:27:35.588Z,1.88
2022-09-27T14:30:38.053Z,2.00
2022-09-27T14:33:32.222Z,2.00
2022-09-27T14:36:47.890Z,2.20
2022-09-27T14:39:37.921Z,2.17
2022-09-27T14:42:36.736Z,2.13
2022-09-27T14:45:42.841Z,2.50
2022-09-27T14:48:21.501Z,2.33
2022-09-27T14:51:19.365Z,3.30
2022-09-27T14:53:50.005Z,4.28
2022-09-27T14:56:22.822Z,4.63
2022-09-27T14:59:04.202Z,3.95
2022-09-27T15:01:32.122Z,2.83
2022-09-27T15:04:07.723Z,3.72
2022-09-27T15:06:38.949Z,2.60
2022-09-27T15:09:07.527Z,3.72
2022-09-27T15:11:35.279Z,4.07
2022-09-27T15:14:05.223Z,6.32
2022-09-27T15:16:33.855Z,5.82
2022-09-27T15:19:07.187Z,4.63
2022-09-27T15:21:37.675Z,3.28
2022-09-27T15:24:05.857Z,3.30
2022-09-27T15:29:24.682Z,4.07
2022-09-27T15:32:06.067Z,7.82
2022-09-27T15:34:35.671Z,3.55
2022-09-27T15:37:08.893Z,8.77
2022-09-27T15:39:39.514Z,5.35
2022-09-27T15:42:19.638Z,4.47
2022-09-27T15:44:51.184Z,4.22
2022-09-27T15:47:40.252Z,5.60
2022-09-27T15:50:16.822Z,5.43
2022-09-27T15:52:50.067Z,4.75
2022-09-27T15:55:27.305Z,4.53
2022-09-27T15:57:59.364Z,7.05
2022-09-27T16:00:27.182Z,7.70
2022-09-27T16:02:54.723Z,5.78
2022-09-27T16:05:23.927Z,5.93
2022-09-27T16:07:51.751Z,7.22
2022-09-27T16:10:32.130Z,6.50
2022-09-27T16:12:59.597Z,13.27
2022-09-27T16:15:27.123Z,19.08
2022-09-27T16:17:54.911Z,15.07
2022-09-27T16:20:26.541Z,17.27
2022-09-27T16:22:55.643Z,10.20
2022-09-27T16:25:23.858Z,9.85
2022-09-27T16:30:20.748Z,19.20
2022-09-27T16:32:49.826Z,20.70
2022-09-27T16:35:19.841Z,23.10
2022-09-27T16:37:47.339Z,14.80
2022-09-27T16:40:18.044Z,14.68
2022-09-27T16:42:48.961Z,24.85
2022-09-27T16:45:19.284Z,31.02
2022-09-27T16:47:48.018Z,27.65
2022-09-27T16:53:01.559Z,25.17
2022-09-27T16:55:29.437Z,20.58
2022-09-27T16:58:00.196Z,16.77
2022-09-27T17:00:27.891Z,12.65
2022-09-27T17:02:55.588Z,13.10
2022-09-27T17:05:23.195Z,15.43
2022-09-27T17:07:55.010Z,17.10
2022-09-27T17:10:23.580Z,51.67
2022-09-27T17:12:51.117Z,93.47
2022-09-27T17:15:18.912Z,42.90
2022-09-27T17:17:50.016Z,41.78
2022-09-27T17:20:17.976Z,37.25
2022-09-27T17:22:45.530Z,63.95
2022-09-27T17:25:12.994Z,29.38
2022-09-27T17:27:40.461Z,26.55
2022-09-27T17:30:08.674Z,24.13
2022-09-27T17:35:03.576Z,26.43
2022-09-27T17:37:31.054Z,26.30
2022-09-27T17:39:58.595Z,22.23
2022-09-27T17:42:26.720Z,23.80
2022-09-27T17:44:54.213Z,24.70
2022-09-27T17:47:40.235Z,48.53
2022-09-27T17:50:25.460Z,36.55
2022-09-27T17:52:53.957Z,23.20
2022-09-27T17:55:21.939Z,21.65
2022-09-27T17:57:50.658Z,15.50
2022-09-27T18:00:20.389Z,14.77
2022-09-27T18:02:48.482Z,13.75
2022-09-27T18:07:43.525Z,13.90
2022-09-27T18:10:11.398Z,12.87
2022-09-27T18:12:39.066Z,15.55
2022-09-27T18:15:08.071Z,10.95
2022-09-27T18:17:37.357Z,14.40
2022-09-27T18:20:06.696Z,27.55
2022-09-27T18:22:34.766Z,36.03
2022-09-27T18:25:03.449Z,39.15
2022-09-27T18:27:31.819Z,32.30
2022-09-27T18:30:00.101Z,28.63
2022-09-27T18:34:54.919Z,29.27
2022-09-27T18:37:22.384Z,26.38
2022-09-27T18:39:49.839Z,27.27
2022-09-27T18:42:17.305Z,26.53
2022-09-27T18:44:44.790Z,28.50
2022-09-27T18:47:12.273Z,29.60
2022-09-27T18:49:39.716Z,28.80
2022-09-27T18:52:07.329Z,32.58
2022-09-27T18:54:35.279Z,31.20
2022-09-27T18:57:02.794Z,29.25
2022-09-27T18:59:30.264Z,30.17
2022-09-27T19:01:57.766Z,26.73
2022-09-27T19:04:26.604Z,28.00
2022-09-27T19:06:56.515Z,22.05
2022-09-27T19:09:26.624Z,18.73
2022-09-27T19:11:54.541Z,17.02
2022-09-27T19:14:23.327Z,20.55
2022-09-27T19:16:51.223Z,20.83
2022-09-27T19:19:20.332Z,18.23
2022-09-27T19:21:48.912Z,27.20
2022-09-27T19:24:18.120Z,27.27
2022-09-27T19:26:45.989Z,24.08
2022-09-27T19:29:14.747Z,22.88
2022-09-27T19:31:42.567Z,20.42
2022-09-27T19:34:11.215Z,21.85
2022-09-27T19:36:38.847Z,20.88
2022-09-27T19:39:06.566Z,20.92
2022-09-27T19:41:34.047Z,17.70
2022-09-27T19:44:01.991Z,15.45
2022-09-27T19:46:29.485Z,13.10
2022-09-27T19:48:57.464Z,11.75
2022-09-27T19:51:28.113Z,10.93
2022-09-27T19:53:56.682Z,12.93
2022-09-27T19:56:25.221Z,11.35
2022-09-27T19:58:52.705Z,10.43
2022-09-27T20:01:24.508Z,13.38
2022-09-27T20:03:55.837Z,9.23
2022-09-27T20:06:23.619Z,9.57
2022-09-27T20:08:51.223Z,7.97
2022-09-27T20:11:22.259Z,9.05
2022-09-27T20:13:52.506Z,6.32
2022-09-27T20:16:23.796Z,8.10
2022-09-27T20:18:57.258Z,7.32
2022-09-27T20:21:32.535Z,7.88
2022-09-27T20:24:02.162Z,5.93
2022-09-27T20:26:31.752Z,9.95
2022-09-27T20:29:01.099Z,23.48
2022-09-27T20:31:37.123Z,27.80
2022-09-27T20:34:07.517Z,39.55
2022-09-27T20:36:38.506Z,24.55
2022-09-27T20:39:12.356Z,37.00
2022-09-27T20:41:46.786Z,30.33
2022-09-27T20:44:17.703Z,37.22
2022-09-27T20:46:46.487Z,28.50
2022-09-27T20:49:18.578Z,19.00
2022-09-27T20:51:51.408Z,16.23
2022-09-27T20:54:19.385Z,12.00
2022-09-27T20:56:48.617Z,9.23
2022-09-27T20:59:22.474Z,6.07
2022-09-27T21:01:52.395Z,3.08
2022-09-27T21:04:21.529Z,3.72
2022-09-27T21:06:52.375Z,3.30
2022-09-27T21:09:20.310Z,5.13
2022-09-27T21:11:51.584Z,4.03
2022-09-27T21:14:19.313Z,4.28
2022-09-27T21:16:46.860Z,10.98
2022-09-27T21:19:14.450Z,8.68
2022-09-27T21:21:41.996Z,6.93
2022-09-27T21:24:09.632Z,5.82
2022-09-27T21:26:37.299Z,4.53
2022-09-27T21:29:11.595Z,4.35
2022-09-27T21:31:39.206Z,9.68
2022-09-27T21:34:06.917Z,7.22
2022-09-27T21:36:38.149Z,5.22
2022-09-27T21:39:11.270Z,5.53
2022-09-27T21:41:39.218Z,8.68
2022-09-27T21:44:09.974Z,4.22
2022-09-27T21:46:40.841Z,4.78
2022-09-27T21:49:08.461Z,4.32
2022-09-27T21:51:42.194Z,3.97
2022-09-27T21:54:14.757Z,5.43
2022-09-27T21:56:44.205Z,6.88
2022-09-27T21:59:15.276Z,4.93
2022-09-27T22:01:45.817Z,4.88
2022-09-27T22:04:13.793Z,6.20
2022-09-27T22:06:41.843Z,7.80
2022-09-27T22:09:16.136Z,5.22
2022-09-27T22:11:46.291Z,6.60
2022-09-27T22:14:17.050Z,7.65
2022-09-27T22:16:44.506Z,7.25
2022-09-27T22:19:14.255Z,6.07
2022-09-27T22:21:42.883Z,5.97
2022-09-27T22:24:17.064Z,4.88
2022-09-27T22:26:51.776Z,5.15
2022-09-27T22:29:20.066Z,5.45
2022-09-27T22:34:23.625Z,5.72
2022-09-27T22:36:51.113Z,5.95
2022-09-27T22:39:18.685Z,5.13
2022-09-27T22:41:46.148Z,5.13
2022-09-27T22:44:13.591Z,6.37
2022-09-27T22:46:41.238Z,6.87
2022-09-27T22:49:08.997Z,7.10
2022-09-27T22:51:36.489Z,6.78
2022-09-27T22:54:04.227Z,7.03
2022-09-27T22:56:31.677Z,6.55
2022-09-27T22:58:59.151Z,7.80
2022-09-27T23:01:26.617Z,4.43
2022-09-27T23:03:55.115Z,5.03
2022-09-27T23:06:23.345Z,4.50
2022-09-27T23:08:51.649Z,4.70
2022-09-27T23:13:50.775Z,3.65
2022-09-27T23:16:26.063Z,4.13
2022-09-27T23:18:56.530Z,3.70
2022-09-27T23:21:26.673Z,4.05
2022-09-27T23:23:59.728Z,3.78
2022-09-27T23:26:28.660Z,5.43
2022-09-27T23:29:01.844Z,5.85
2022-09-27T23:31:32.211Z,3.40
2022-09-27T23:34:04.638Z,3.50
2022-09-27T23:36:32.264Z,6.22
2022-09-27T23:39:01.394Z,4.75
2022-09-27T23:41:29.239Z,4.53
2022-09-27T23:43:57.368Z,5.03
2022-09-27T23:46:25.299Z,5.50
2022-09-27T23:48:53.516Z,4.03
2022-09-27T23:51:21.059Z,5.93
2022-09-27T23:53:48.531Z,4.57
2022-09-27T23:56:17.303Z,7.82
2022-09-27T23:58:46.240Z,6.53
